Time;durP1;ratioP1;P1;durP2;ratioP2;P2;SDS_P1;SDS_P2;PMS_P1;PMS_P2;Temp;Humidity;BMP_temperature;BMP_pressure;BME280_temperature;BME280_humidity;BME280_pressure;Samples;Min_cycle;Max_cycle;Signal;HPM_P1;HPM_P2
2023/01/08 00:01:29;;;;;;;;;;;;;;;20.13;28.15;98164.91;4995920;28;20031;-86
2023/01/08 00:03:55;;;;;;;;;;;;;;;21.31;26.48;98169.28;4973384;28;20354;-86
2023/01/08 00:06:21;;;;;;;;;;;;;;;21.17;26.42;98167.44;4986479;28;19921;-86
2023/01/08 00:08:47;;;;;;;;;;;;;;;22.29;24.92;98152.63;4977584;28;20001;-86
2023/01/08 00:11:14;;;;;;;;;;;;;;;21.37;25.98;98161.28;4990930;28;19928;-86
2023/01/08 00:13:40;;;;;;;;;;;;;;;21.55;25.85;98156.28;4986573;28;19928;-86
2023/01/08 00:16:08;;;;;;;;;;;;;;;21.97;25.18;98142.66;4976033;28;19973;-86
2023/01/08 00:18:34;;;;;;;;;;;;;;;21.61;25.60;98158.22;4985272;28;19941;-86
2023/01/08 00:21:00;;;;;;;;;;;;;;;21.96;25.17;98143.09;4983208;28;20389;-86
2023/01/08 00:23:26;;;;;;;;;;;;;;;21.73;25.04;98137.31;4983323;28;19921;-86
2023/01/08 00:25:52;;;;;;;;;;;;;;;21.83;25.12;98133.63;4992385;28;20393;-86
2023/01/08 00:28:19;;;;;;;;;;;;;;;21.62;25.26;98133.88;4987978;28;19922;-86
2023/01/08 00:30:46;;;;;;;;;;;;;;;21.47;25.23;98135.25;4963371;28;19981;-86
2023/01/08 00:33:12;;;;;;;;;;;;;;;21.15;25.89;98139.13;4981381;28;19930;-86
2023/01/08 00:35:38;;;;;;;;;;;;;;;20.52;26.47;98137.59;4981100;28;20328;-86
2023/01/08 00:38:05;;;;;;;;;;;;;;;21.04;25.89;98132.84;4992358;28;20399;-86
2023/01/08 00:40:34;;;;;;;;;;;;;;;21.84;24.56;98138.03;4983325;28;20004;-86
2023/01/08 00:43:00;;;;;;;;;;;;;;;21.94;24.54;98129.50;4983823;28;19929;-86
2023/01/08 00:45:26;;;;;;;;;;;;;;;21.40;25.10;98135.31;4988481;28;19926;-86
2023/01/08 00:47:53;;;;;;;;;;;;;;;21.71;24.79;98131.34;4979937;28;19933;-86
2023/01/08 00:50:18;;;;;;;;;;;;;;;21.80;24.72;98128.84;4989573;28;20008;-86
2023/01/08 00:52:44;;;;;;;;;;;;;;;20.96;25.23;98131.28;4988617;28;19973;-86
2023/01/08 00:55:10;;;;;;;;;;;;;;;21.67;25.07;98131.41;4963697;28;20437;-86
2023/01/08 00:57:37;;;;;;;;;;;;;;;21.81;24.39;98128.47;4992001;28;19923;-86
2023/01/08 01:00:05;;;;;;;;;;;;;;;22.32;23.90;98135.81;4984209;28;19932;-86
2023/01/08 01:02:31;;;;;;;;;;;;;;;22.32;23.94;98121.03;4979167;28;19922;-86
2023/01/08 01:04:57;;;;;;;;;;;;;;;22.02;24.41;98121.84;4982407;28;19930;-86
2023/01/08 01:07:23;;;;;;;;;;;;;;;21.23;25.08;98123.13;4972870;28;19926;-86
2023/01/08 01:09:49;;;;;;;;;;;;;;;21.17;25.77;98131.13;4980678;28;19922;-86
2023/01/08 01:12:15;;;;;;;;;;;;;;;20.07;26.65;98129.50;4993456;28;20029;-86
2023/01/08 01:14:41;;;;;;;;;;;;;;;19.47;27.88;98129.72;4988442;28;19933;-86
2023/01/08 01:17:08;;;;;;;;;;;;;;;17.98;29.90;98125.22;4980413;28;19921;-85
2023/01/08 01:19:34;;;;;;;;;;;;;;;18.95;28.74;98128.59;4982538;28;19930;-86
2023/01/08 01:22:00;;;;;;;;;;;;;;;20.29;26.85;98119.84;4975035;28;20076;-86
2023/01/08 01:24:26;;;;;;;;;;;;;;;21.38;25.21;98116.16;4991935;28;20016;-86
2023/01/08 01:26:55;;;;;;;;;;;;;;;21.50;25.04;98117.63;4985173;28;20026;-86
2023/01/08 01:29:21;;;;;;;;;;;;;;;18.38;29.25;98116.59;4986580;28;20445;-86
2023/01/08 01:31:47;;;;;;;;;;;;;;;19.43;27.85;98113.03;4977877;28;20290;-86
2023/01/08 01:34:13;;;;;;;;;;;;;;;21.15;25.20;98119.59;4989865;28;19918;-86
2023/01/08 01:36:39;;;;;;;;;;;;;;;22.15;23.91;98108.09;4989981;28;19922;-86
2023/01/08 01:39:05;;;;;;;;;;;;;;;19.32;27.53;98110.22;4985570;28;19920;-86
2023/01/08 01:41:39;;;;;;;;;;;;;;;19.78;27.26;98107.34;4974816;28;19968;-86
2023/01/08 01:44:23;;;;;;;;;;;;;;;20.88;25.50;98101.88;4980375;28;19933;-86
2023/01/08 01:46:49;;;;;;;;;;;;;;;20.64;25.83;98098.06;4989335;28;20367;-86
2023/01/08 01:49:20;;;;;;;;;;;;;;;21.46;24.80;98089.75;4977245;28;19965;-86
2023/01/08 01:51:48;;;;;;;;;;;;;;;21.32;24.82;98087.09;4985821;28;19930;-86
2023/01/08 01:54:15;;;;;;;;;;;;;;;21.46;24.64;98080.56;4985366;28;19933;-86
2023/01/08 01:56:41;;;;;;;;;;;;;;;20.66;25.82;98075.34;4977741;28;20366;-86
2023/01/08 01:59:08;;;;;;;;;;;;;;;20.49;25.97;98077.06;4980137;28;19922;-86
2023/01/08 02:01:34;;;;;;;;;;;;;;;20.55;25.78;98081.03;4986329;28;19957;-86
2023/01/08 02:04:00;;;;;;;;;;;;;;;20.78;25.43;98080.41;4987654;28;19968;-86
2023/01/08 02:06:32;;;;;;;;;;;;;;;21.12;24.99;98072.19;4982656;28;19922;-86
2023/01/08 02:09:11;;;;;;;;;;;;;;;20.33;26.11;98068.41;4979931;28;20405;-86
2023/01/08 02:11:37;;;;;;;;;;;;;;;21.06;24.93;98068.22;4990438;28;19928;-86
2023/01/08 02:14:15;;;;;;;;;;;;;;;20.25;25.82;98060.53;5004829;28;20324;-86
2023/01/08 02:16:41;;;;;;;;;;;;;;;19.21;27.35;98053.00;4982190;28;19992;-86
2023/01/08 02:19:20;;;;;;;;;;;;;;;20.14;26.39;98059.78;4980593;28;20362;-86
2023/01/08 02:21:52;;;;;;;;;;;;;;;19.53;26.96;98062.09;4958138;28;19973;-86
2023/01/08 02:24:36;;;;;;;;;;;;;;;18.70;28.20;98061.81;4977071;28;19953;-86
2023/01/08 02:27:03;;;;;;;;;;;;;;;18.32;29.04;98051.50;4984201;28;20389;-86
2023/01/08 02:29:31;;;;;;;;;;;;;;;19.61;27.05;98044.13;4987290;28;19922;-86
2023/01/08 02:31:57;;;;;;;;;;;;;;;19.91;26.57;98047.16;4992706;28;20317;-86
2023/01/08 02:34:23;;;;;;;;;;;;;;;20.62;25.70;98041.09;4987004;28;20012;-86
2023/01/08 02:36:50;;;;;;;;;;;;;;;19.77;26.34;98043.66;4980731;28;19918;-86
2023/01/08 02:39:22;;;;;;;;;;;;;;;20.60;25.32;98037.94;4980064;28;20404;-86
2023/01/08 02:42:06;;;;;;;;;;;;;;;20.65;25.19;98043.09;4968208;28;19987;-86
2023/01/08 02:44:41;;;;;;;;;;;;;;;20.84;24.99;98036.91;4978467;28;19980;-86
2023/01/08 02:47:10;;;;;;;;;;;;;;;20.71;25.14;98037.84;4981165;28;19925;-86
2023/01/08 02:49:40;;;;;;;;;;;;;;;21.90;23.52;98028.16;4996247;28;19922;-86
2023/01/08 02:52:07;;;;;;;;;;;;;;;22.13;22.73;98027.41;4985888;28;19921;-86
2023/01/08 02:54:34;;;;;;;;;;;;;;;21.27;24.00;98024.13;4982476;28;19929;-86
2023/01/08 02:57:04;;;;;;;;;;;;;;;21.60;23.71;98019.75;4980780;28;20335;-86
2023/01/08 02:59:31;;;;;;;;;;;;;;;21.55;23.86;98022.19;4983737;28;20056;-86
2023/01/08 03:01:58;;;;;;;;;;;;;;;20.68;25.02;98031.06;4992405;28;19945;-86
2023/01/08 03:04:24;;;;;;;;;;;;;;;21.08;24.36;98026.72;4988140;28;19930;-85
2023/01/08 03:06:51;;;;;;;;;;;;;;;21.56;23.33;98029.38;4984563;28;19930;-85
2023/01/08 03:09:17;;;;;;;;;;;;;;;21.96;23.35;98029.25;4986849;28;19921;-85
2023/01/08 03:11:56;;;;;;;;;;;;;;;22.39;22.79;98029.41;4993976;28;19929;-86
2023/01/08 03:14:35;;;;;;;;;;;;;;;22.41;22.40;98032.56;4989290;28;19927;-85
2023/01/08 03:17:12;;;;;;;;;;;;;;;21.84;22.76;98027.00;4985280;28;19921;-85
2023/01/08 03:19:40;;;;;;;;;;;;;;;22.58;22.23;98023.09;4983236;28;19921;-86
2023/01/08 03:22:09;;;;;;;;;;;;;;;22.29;22.37;98007.97;4991852;28;19922;-85
2023/01/08 03:24:36;;;;;;;;;;;;;;;22.51;22.15;98014.81;4981045;28;19957;-85
2023/01/08 03:27:04;;;;;;;;;;;;;;;22.35;22.19;98006.28;4992085;28;19968;-85
2023/01/08 03:29:30;;;;;;;;;;;;;;;22.67;22.18;98006.56;4993023;28;19922;-85
2023/01/08 03:31:59;;;;;;;;;;;;;;;22.31;22.36;98001.97;4982690;28;20056;-85
2023/01/08 03:34:27;;;;;;;;;;;;;;;22.52;22.03;98005.19;4990350;28;20068;-85
2023/01/08 03:36:54;;;;;;;;;;;;;;;22.74;21.96;98005.66;4989406;28;20462;-85
2023/01/08 03:39:27;;;;;;;;;;;;;;;22.99;22.05;98005.19;4976931;28;20290;-85
2023/01/08 03:41:57;;;;;;;;;;;;;;;23.20;21.85;97999.97;4992463;28;19929;-85
2023/01/08 03:44:23;;;;;;;;;;;;;;;23.34;20.68;97999.72;4981867;28;20020;-85
2023/01/08 03:46:51;;;;;;;;;;;;;;;23.31;21.24;97994.94;4985695;28;19922;-85
2023/01/08 03:49:19;;;;;;;;;;;;;;;23.26;21.14;97989.88;4990553;28;19940;-85
2023/01/08 03:51:46;;;;;;;;;;;;;;;23.32;20.83;97990.16;4983447;28;19949;-85
2023/01/08 03:54:14;;;;;;;;;;;;;;;23.27;21.01;97983.03;4988400;28;20256;-85
2023/01/08 03:56:40;;;;;;;;;;;;;;;23.18;20.96;97976.41;4989216;28;19921;-85
2023/01/08 03:59:06;;;;;;;;;;;;;;;23.38;20.87;97979.25;4994202;28;20375;-85
2023/01/08 04:01:32;;;;;;;;;;;;;;;23.28;20.63;97975.44;4991930;28;19953;-85
2023/01/08 04:03:58;;;;;;;;;;;;;;;23.34;20.99;97971.72;4981720;28;19965;-85
2023/01/08 04:06:24;;;;;;;;;;;;;;;23.17;20.81;97972.84;4988037;28;19968;-85
2023/01/08 04:08:50;;;;;;;;;;;;;;;23.12;21.38;97973.34;4975678;28;20004;-85
2023/01/08 04:11:16;;;;;;;;;;;;;;;22.93;21.60;97974.13;4919024;28;1806491;-85
2023/01/08 04:13:42;;;;;;;;;;;;;;;23.01;21.38;97974.78;4989903;28;20402;-85
2023/01/08 04:16:08;;;;;;;;;;;;;;;23.14;20.83;97964.50;4993158;28;19973;-85
2023/01/08 04:18:34;;;;;;;;;;;;;;;23.00;21.15;97967.59;4983662;28;20357;-85
2023/01/08 04:21:00;;;;;;;;;;;;;;;22.89;21.22;97967.00;4992738;28;20016;-85
2023/01/08 04:23:26;;;;;;;;;;;;;;;22.75;21.39;97973.66;4985088;28;19928;-84
2023/01/08 04:25:52;;;;;;;;;;;;;;;22.62;21.34;97964.28;4988430;28;19967;-84
2023/01/08 04:28:19;;;;;;;;;;;;;;;22.45;21.60;97963.34;4987236;28;20346;-84
2023/01/08 04:30:45;;;;;;;;;;;;;;;22.37;21.69;97970.28;4983690;28;19926;-84
2023/01/08 04:33:11;;;;;;;;;;;;;;;22.27;21.86;97968.47;4986449;28;20478;-85
2023/01/08 04:35:37;;;;;;;;;;;;;;;22.05;22.04;97972.03;4979520;28;19922;-85
2023/01/08 04:38:03;;;;;;;;;;;;;;;22.37;22.08;97973.09;4986971;28;20024;-85
2023/01/08 04:40:30;;;;;;;;;;;;;;;22.41;21.80;97967.41;4976587;28;19918;-84
2023/01/08 04:42:57;;;;;;;;;;;;;;;22.49;21.74;97968.91;4985275;28;19945;-85
2023/01/08 04:45:23;;;;;;;;;;;;;;;22.75;21.30;97968.06;4988632;28;19929;-84
2023/01/08 04:47:55;;;;;;;;;;;;;;;22.83;21.15;97968.69;4995607;28;19965;-84
2023/01/08 04:50:22;;;;;;;;;;;;;;;22.91;20.94;97961.75;4984931;28;19973;-84
2023/01/08 04:52:48;;;;;;;;;;;;;;;22.53;20.99;97958.44;4987833;28;19922;-84
2023/01/08 04:55:14;;;;;;;;;;;;;;;22.74;21.02;97957.28;4979396;28;19922;-84
2023/01/08 04:57:40;;;;;;;;;;;;;;;22.57;21.10;97956.34;4980605;28;19960;-84
2023/01/08 05:00:06;;;;;;;;;;;;;;;22.37;21.41;97961.91;4980923;28;19918;-84
2023/01/08 05:02:32;;;;;;;;;;;;;;;22.40;21.44;97961.06;4985643;28;19922;-85
2023/01/08 05:04:58;;;;;;;;;;;;;;;22.39;21.27;97962.25;4991380;28;20009;-85
2023/01/08 05:07:24;;;;;;;;;;;;;;;22.76;21.03;97957.63;4991161;28;19953;-84
2023/01/08 05:09:50;;;;;;;;;;;;;;;22.69;21.02;97966.97;4981030;28;19922;-85
2023/01/08 05:12:16;;;;;;;;;;;;;;;22.57;21.37;97962.75;4985577;28;19922;-84
2023/01/08 05:14:42;;;;;;;;;;;;;;;22.52;21.07;97954.06;4982148;28;19922;-84
2023/01/08 05:17:08;;;;;;;;;;;;;;;22.59;21.14;97959.53;4990024;28;20024;-84
2023/01/08 05:19:34;;;;;;;;;;;;;;;22.71;21.18;97961.72;4992454;28;20504;-84
2023/01/08 05:22:00;;;;;;;;;;;;;;;22.57;21.08;97954.34;4990971;28;20012;-84
2023/01/08 05:24:26;;;;;;;;;;;;;;;22.36;21.16;97953.91;4984521;28;19945;-84
2023/01/08 05:26:52;;;;;;;;;;;;;;;22.28;21.65;97947.69;4986614;28;20374;-84
2023/01/08 05:29:19;;;;;;;;;;;;;;;22.45;21.21;97943.00;5000441;28;20017;-84
2023/01/08 05:31:45;;;;;;;;;;;;;;;22.32;21.23;97937.22;4984056;28;20008;-84
2023/01/08 05:34:11;;;;;;;;;;;;;;;22.05;21.94;97935.69;4989523;28;20009;-84
2023/01/08 05:36:37;;;;;;;;;;;;;;;22.03;21.80;97936.13;4985064;28;20473;-84
2023/01/08 05:39:03;;;;;;;;;;;;;;;21.93;21.74;97939.84;4984387;28;20020;-84
2023/01/08 05:41:29;;;;;;;;;;;;;;;21.90;21.88;97935.09;4986791;28;20012;-85
2023/01/08 05:43:55;;;;;;;;;;;;;;;22.07;21.64;97930.44;4984240;28;20366;-84
2023/01/08 05:46:21;;;;;;;;;;;;;;;21.82;22.06;97930.81;4983756;28;19932;-85
2023/01/08 05:48:47;;;;;;;;;;;;;;;21.39;23.08;97941.00;4980038;28;19924;-85
2023/01/08 05:51:13;;;;;;;;;;;;;;;20.78;24.14;97934.53;4986638;28;19922;-85
2023/01/08 05:53:39;;;;;;;;;;;;;;;20.89;24.05;97926.81;4985605;28;19922;-85
2023/01/08 05:56:06;;;;;;;;;;;;;;;21.05;23.91;97930.66;4977248;28;20382;-85
2023/01/08 05:58:33;;;;;;;;;;;;;;;21.04;24.15;97931.88;4989054;28;20380;-83
2023/01/08 06:01:12;;;;;;;;;;;;;;;20.72;24.64;97923.06;4993555;28;19948;-83
2023/01/08 06:03:38;;;;;;;;;;;;;;;20.90;24.34;97923.63;4989445;28;19917;-83
2023/01/08 06:06:05;;;;;;;;;;;;;;;21.25;23.93;97923.22;4983895;28;19990;-82
2023/01/08 06:08:33;;;;;;;;;;;;;;;20.84;24.28;97907.78;4975031;28;19923;-83
2023/01/08 06:11:04;;;;;;;;;;;;;;;18.19;27.84;97922.44;4981877;28;19922;-83
2023/01/08 06:13:30;;;;;;;;;;;;;;;19.08;26.92;97913.50;4982621;28;19922;-83
2023/01/08 06:15:58;;;;;;;;;;;;;;;18.85;27.38;97912.41;4987386;28;20378;-83
2023/01/08 06:18:24;;;;;;;;;;;;;;;20.37;25.42;97915.03;4984598;28;19922;-83
2023/01/08 06:20:50;;;;;;;;;;;;;;;20.85;24.80;97920.50;4987752;28;20370;-83
2023/01/08 06:23:16;;;;;;;;;;;;;;;21.73;23.48;97908.19;4978752;28;20274;-83
2023/01/08 06:25:42;;;;;;;;;;;;;;;21.55;23.84;97908.44;4983232;28;19930;-83
2023/01/08 06:28:08;;;;;;;;;;;;;;;20.30;25.08;97918.69;4986769;28;20308;-83
2023/01/08 06:30:34;;;;;;;;;;;;;;;21.95;23.25;97918.66;4981675;28;19933;-83
2023/01/08 06:33:00;;;;;;;;;;;;;;;22.50;22.56;97911.72;5000707;28;20012;-83
2023/01/08 06:35:26;;;;;;;;;;;;;;;22.76;21.75;97910.84;5000400;28;19918;-83
2023/01/08 06:37:56;;;;;;;;;;;;;;;23.17;21.95;97916.03;4999730;28;20357;-83
2023/01/08 06:40:22;;;;;;;;;;;;;;;23.38;21.25;97910.00;4981651;28;20038;-83
2023/01/08 06:42:48;;;;;;;;;;;;;;;22.78;21.55;97902.81;4983657;28;20022;-83
2023/01/08 06:45:14;;;;;;;;;;;;;;;22.72;21.77;97906.53;4980247;28;19922;-83
2023/01/08 06:47:40;;;;;;;;;;;;;;;22.76;21.68;97907.25;4985373;28;19930;-83
2023/01/08 06:50:08;;;;;;;;;;;;;;;22.64;21.46;97901.06;4975744;28;20305;-83
2023/01/08 06:52:34;;;;;;;;;;;;;;;22.68;21.41;97901.03;4982607;28;19929;-83
2023/01/08 06:55:00;;;;;;;;;;;;;;;22.85;21.21;97911.06;4985537;28;19976;-82
2023/01/08 06:57:26;;;;;;;;;;;;;;;22.62;21.90;97920.31;4978883;28;19926;-83
2023/01/08 06:59:52;;;;;;;;;;;;;;;22.75;21.65;97919.69;4978232;28;20072;-83
2023/01/08 07:02:18;;;;;;;;;;;;;;;22.52;22.13;97926.84;4981062;28;20032;-83
2023/01/08 07:04:44;;;;;;;;;;;;;;;22.72;22.17;97917.72;4962669;28;20009;-83
2023/01/08 07:07:11;;;;;;;;;;;;;;;22.89;21.58;97925.81;4979982;28;20057;-83
2023/01/08 07:09:37;;;;;;;;;;;;;;;23.20;21.09;97915.16;4983268;28;19922;-83
2023/01/08 07:12:03;;;;;;;;;;;;;;;23.53;20.78;97914.06;4989196;28;20283;-82
2023/01/08 07:14:29;;;;;;;;;;;;;;;23.32;20.99;97912.50;4979297;28;19918;-83
2023/01/08 07:16:55;;;;;;;;;;;;;;;23.41;20.94;97911.16;4987855;28;19930;-83
2023/01/08 07:19:21;;;;;;;;;;;;;;;23.45;21.42;97911.88;4983440;28;19920;-83
2023/01/08 07:21:47;;;;;;;;;;;;;;;23.76;20.65;97915.94;4996943;28;20398;-83
2023/01/08 07:24:13;;;;;;;;;;;;;;;23.76;20.76;97919.53;4993628;28;20004;-83
2023/01/08 07:26:39;;;;;;;;;;;;;;;23.80;21.10;97925.88;4975548;28;19976;-83
2023/01/08 07:29:05;;;;;;;;;;;;;;;23.59;21.04;97919.97;4979360;28;19976;-82
2023/01/08 07:31:32;;;;;;;;;;;;;;;23.57;21.30;97911.97;4977087;28;19914;-83
2023/01/08 07:33:58;;;;;;;;;;;;;;;23.59;21.30;97903.16;4980490;28;20315;-83
2023/01/08 07:36:24;;;;;;;;;;;;;;;23.73;21.06;97888.81;4986667;28;20221;-83
2023/01/08 07:38:50;;;;;;;;;;;;;;;23.46;21.84;97891.81;4979673;28;19945;-83
2023/01/08 07:41:16;;;;;;;;;;;;;;;23.74;21.63;97887.56;4986427;28;19926;-83
2023/01/08 07:43:48;;;;;;;;;;;;;;;24.03;21.31;97888.47;5002382;28;19932;-86
2023/01/08 07:46:14;;;;;;;;;;;;;;;24.23;21.25;97888.38;4985914;28;19926;-89
2023/01/08 07:48:40;;;;;;;;;;;;;;;24.08;21.29;97889.97;4985475;28;20294;-88
2023/01/08 07:51:07;;;;;;;;;;;;;;;24.04;21.44;97887.22;4984036;28;20293;-86
2023/01/08 07:53:34;;;;;;;;;;;;;;;23.99;21.45;97882.16;4985922;28;19929;-85
2023/01/08 07:56:05;;;;;;;;;;;;;;;24.16;21.69;97880.16;4993338;28;19926;-86
2023/01/08 07:58:31;;;;;;;;;;;;;;;24.36;21.64;97875.22;4988196;28;19922;-84
2023/01/08 08:00:57;;;;;;;;;;;;;;;23.69;22.04;97871.25;4981669;28;19922;-86
2023/01/08 08:03:23;;;;;;;;;;;;;;;23.27;22.39;97875.78;4980369;28;19922;-84
2023/01/08 08:05:49;;;;;;;;;;;;;;;23.09;22.76;97864.97;4981536;28;19957;-87
2023/01/08 08:08:16;;;;;;;;;;;;;;;23.22;22.63;97859.50;4986809;28;19930;-84
2023/01/08 08:10:42;;;;;;;;;;;;;;;23.07;23.26;97861.81;4967526;28;19969;-87
2023/01/08 08:13:09;;;;;;;;;;;;;;;23.65;22.24;97856.53;4988213;28;19930;-88
2023/01/08 08:15:35;;;;;;;;;;;;;;;23.80;22.10;97847.38;4973188;28;19928;-86
2023/01/08 08:18:02;;;;;;;;;;;;;;;23.53;22.53;97851.63;4985250;28;20352;-86
2023/01/08 08:20:28;;;;;;;;;;;;;;;23.47;22.58;97840.16;4992879;28;19922;-87
2023/01/08 08:23:00;;;;;;;;;;;;;;;23.00;23.31;97845.19;4985080;28;19925;-86
2023/01/08 08:25:26;;;;;;;;;;;;;;;23.38;22.78;97839.19;4963613;28;20297;-86
2023/01/08 08:27:55;;;;;;;;;;;;;;;23.73;22.75;97836.34;4996128;28;19922;-85
2023/01/08 08:30:21;;;;;;;;;;;;;;;23.91;22.37;97831.06;4968516;28;20310;-85
2023/01/08 08:32:46;;;;;;;;;;;;;;;24.18;22.35;97827.97;4995850;28;19928;-84
2023/01/08 08:35:13;;;;;;;;;;;;;;;24.40;21.75;97823.41;5012451;28;19924;-84
2023/01/08 08:37:39;;;;;;;;;;;;;;;23.11;23.59;97825.31;4993773;28;19929;-84
2023/01/08 08:40:05;;;;;;;;;;;;;;;23.41;23.25;97819.47;4984951;28;19941;-85
2023/01/08 08:42:31;;;;;;;;;;;;;;;23.65;23.15;97811.69;4976183;28;20425;-86
2023/01/08 08:44:57;;;;;;;;;;;;;;;24.15;22.37;97812.06;4975334;28;19922;-85
2023/01/08 08:47:23;;;;;;;;;;;;;;;23.93;22.99;97806.19;4992624;28;19933;-85
2023/01/08 08:49:49;;;;;;;;;;;;;;;24.30;22.38;97807.63;4987606;28;19972;-87
2023/01/08 08:52:15;;;;;;;;;;;;;;;24.45;22.49;97808.81;5006837;28;19926;-86
2023/01/08 08:54:41;;;;;;;;;;;;;;;24.60;22.56;97800.78;4994876;28;19922;-85
2023/01/08 08:57:08;;;;;;;;;;;;;;;24.28;22.94;97787.66;4978260;28;19918;-84
2023/01/08 08:59:34;;;;;;;;;;;;;;;23.90;23.42;97806.25;4976635;28;19919;-85
2023/01/08 09:02:00;;;;;;;;;;;;;;;24.21;23.19;97796.25;4985187;28;19968;-86
2023/01/08 09:04:31;;;;;;;;;;;;;;;23.92;23.86;97806.63;4995081;28;20263;-85
2023/01/08 09:06:57;;;;;;;;;;;;;;;23.67;23.88;97798.03;4975603;28;20374;-85
2023/01/08 09:09:23;;;;;;;;;;;;;;;23.03;24.76;97805.13;4979935;28;20382;-84
2023/01/08 09:11:49;;;;;;;;;;;;;;;23.63;24.46;97795.31;4977820;28;19928;-86
2023/01/08 09:14:15;;;;;;;;;;;;;;;24.89;23.02;97787.53;4991941;28;19960;-85
2023/01/08 09:16:41;;;;;;;;;;;;;;;25.02;22.91;97793.19;4982706;28;19954;-84
2023/01/08 09:19:08;;;;;;;;;;;;;;;25.53;22.12;97796.81;4992228;28;19958;-83
2023/01/08 09:21:34;;;;;;;;;;;;;;;25.99;22.39;97791.25;4989075;28;19925;-89
2023/01/08 09:24:00;;;;;;;;;;;;;;;24.99;23.04;97782.81;4977301;28;19918;-86
2023/01/08 09:26:27;;;;;;;;;;;;;;;25.77;22.58;97781.13;4981810;28;19964;-84
2023/01/08 09:28:53;;;;;;;;;;;;;;;26.29;21.91;97781.38;4986811;28;20282;-86
2023/01/08 09:31:20;;;;;;;;;;;;;;;26.40;21.42;97769.72;4978286;28;19922;-86
2023/01/08 09:33:47;;;;;;;;;;;;;;;26.52;21.66;97768.88;4985217;28;19922;-86
2023/01/08 09:36:13;;;;;;;;;;;;;;;26.54;21.55;97769.19;4982145;28;20298;-86
2023/01/08 09:38:39;;;;;;;;;;;;;;;26.43;21.30;97763.97;4990597;28;20008;-85
2023/01/08 09:41:08;;;;;;;;;;;;;;;26.49;22.07;97762.13;4993800;28;19922;-85
2023/01/08 09:43:36;;;;;;;;;;;;;;;26.67;21.81;97762.28;4986545;28;19922;-85
2023/01/08 09:46:04;;;;;;;;;;;;;;;27.01;22.01;97758.59;4976866;28;19935;-86
2023/01/08 09:48:33;;;;;;;;;;;;;;;26.91;21.41;97747.72;4976598;28;19977;-86
2023/01/08 09:50:59;;;;;;;;;;;;;;;26.71;21.22;97737.56;4963243;28;20004;-85
2023/01/08 09:53:25;;;;;;;;;;;;;;;26.83;21.60;97737.97;4981096;28;20041;-84
2023/01/08 09:55:58;;;;;;;;;;;;;;;27.06;22.14;97737.47;4987417;28;19922;-85
2023/01/08 09:58:33;;;;;;;;;;;;;;;27.11;21.74;97725.59;4994160;28;19965;-85
2023/01/08 10:01:00;;;;;;;;;;;;;;;27.15;21.84;97727.03;4988638;28;19937;-86
2023/01/08 10:03:29;;;;;;;;;;;;;;;27.32;21.11;97728.34;4981520;28;20289;-85
2023/01/08 10:05:55;;;;;;;;;;;;;;;27.56;21.35;97733.47;4980429;28;19929;-84
2023/01/08 10:08:21;;;;;;;;;;;;;;;27.51;20.85;97717.94;4981051;28;19925;-85
2023/01/08 10:10:47;;;;;;;;;;;;;;;27.74;21.20;97725.03;4992906;28;19922;-85
2023/01/08 10:13:14;;;;;;;;;;;;;;;27.65;20.82;97714.53;4988800;28;20485;-85
2023/01/08 10:15:40;;;;;;;;;;;;;;;27.47;20.82;97711.63;4985534;28;19976;-87
2023/01/08 10:18:10;;;;;;;;;;;;;;;27.47;21.48;97711.63;4985376;28;19930;-84
2023/01/08 10:20:38;;;;;;;;;;;;;;;27.17;20.88;97709.63;4981751;28;19930;-83
2023/01/08 10:23:13;;;;;;;;;;;;;;;26.65;22.45;97707.66;4981645;28;19925;-83
2023/01/08 10:26:06;;;;;;;;;;;;;;;27.12;21.45;97694.13;4984953;28;19922;-84
2023/01/08 10:28:36;;;;;;;;;;;;;;;27.14;21.87;97685.22;4983726;28;20006;-84
2023/01/08 10:31:14;;;;;;;;;;;;;;;27.12;21.10;97687.72;4987694;28;19922;-85
2023/01/08 10:33:44;;;;;;;;;;;;;;;27.46;22.14;97675.47;4981232;28;20382;-85
2023/01/08 10:36:13;;;;;;;;;;;;;;;27.73;21.67;97672.66;4989408;28;19959;-84
2023/01/08 10:38:49;;;;;;;;;;;;;;;27.59;22.07;97671.25;4988784;28;19918;-85
2023/01/08 10:41:16;;;;;;;;;;;;;;;27.07;21.74;97672.19;4979670;28;19922;-85
2023/01/08 10:43:42;;;;;;;;;;;;;;;27.17;21.82;97659.69;4993174;28;19918;-86
2023/01/08 10:46:15;;;;;;;;;;;;;;;27.08;22.18;97661.69;4986936;28;20299;-83
2023/01/08 10:48:46;;;;;;;;;;;;;;;26.74;22.88;97648.56;4985154;28;19918;-83
2023/01/08 10:51:14;;;;;;;;;;;;;;;25.92;22.09;97644.41;4977010;28;19969;-83
2023/01/08 10:53:40;;;;;;;;;;;;;;;26.13;22.86;97648.50;4983014;28;19925;-84
2023/01/08 10:56:17;;;;;;;;;;;;;;;26.22;22.85;97638.09;4979151;28;20365;-85
2023/01/08 10:58:43;;;;;;;;;;;;;;;26.18;22.96;97629.00;4979841;28;19961;-84
2023/01/08 11:01:19;;;;;;;;;;;;;;;26.37;22.32;97625.03;4985173;28;19968;-85
2023/01/08 11:03:55;;;;;;;;;;;;;;;26.03;22.12;97631.53;4986267;28;19934;-84
2023/01/08 11:06:23;;;;;;;;;;;;;;;26.08;22.42;97633.75;4990348;28;19922;-84
2023/01/08 11:08:51;;;;;;;;;;;;;;;26.59;22.55;97630.63;4985720;28;19922;-84
2023/01/08 11:11:17;;;;;;;;;;;;;;;26.25;21.74;97622.31;4991428;28;19921;-85
2023/01/08 11:13:59;;;;;;;;;;;;;;;26.78;22.14;97621.06;4985951;28;19968;-84
2023/01/08 11:16:29;;;;;;;;;;;;;;;27.06;21.79;97613.47;4987971;28;19965;-84
2023/01/08 11:18:55;;;;;;;;;;;;;;;27.21;21.81;97614.47;4992273;28;19925;-84
2023/01/08 11:21:23;;;;;;;;;;;;;;;27.30;22.11;97614.47;4982814;28;19922;-84
2023/01/08 11:24:08;;;;;;;;;;;;;;;26.18;23.02;97612.13;4984662;28;19928;-83
2023/01/08 11:26:36;;;;;;;;;;;;;;;26.55;22.60;97599.81;4983509;28;19992;-84
2023/01/08 11:29:13;;;;;;;;;;;;;;;26.77;22.08;97599.00;4971676;28;19930;-84
2023/01/08 11:31:48;;;;;;;;;;;;;;;26.95;22.63;97594.19;4989138;28;19921;-85
2023/01/08 11:34:46;;;;;;;;;;;;;;;25.75;23.46;97589.56;4986220;28;19922;-84
2023/01/08 11:37:23;;;;;;;;;;;;;;;26.99;22.00;97589.19;4944252;28;19942;-84
2023/01/08 11:39:50;;;;;;;;;;;;;;;26.20;23.44;97580.69;4983808;28;19928;-84
2023/01/08 11:42:34;;;;;;;;;;;;;;;27.32;21.29;97581.75;4992749;28;19922;-84
2023/01/08 11:45:00;;;;;;;;;;;;;;;27.65;21.92;97570.66;4994129;28;19926;-84
2023/01/08 11:47:38;;;;;;;;;;;;;;;26.68;21.97;97580.75;4979294;28;19925;-85
2023/01/08 11:50:13;;;;;;;;;;;;;;;27.36;22.41;97575.94;4987096;28;19930;-84
2023/01/08 11:52:51;;;;;;;;;;;;;;;27.29;23.18;97564.97;4991708;28;20293;-85
2023/01/08 11:55:28;;;;;;;;;;;;;;;27.60;21.52;97559.22;4973048;28;19929;-84
2023/01/08 11:58:03;;;;;;;;;;;;;;;27.78;22.72;97567.66;4991366;28;20008;-83
2023/01/08 12:00:47;;;;;;;;;;;;;;;27.60;22.42;97559.22;4987454;28;19941;-84
2023/01/08 12:03:20;;;;;;;;;;;;;;;28.02;21.28;97555.28;4983639;28;19929;-85
2023/01/08 12:06:13;;;;;;;;;;;;;;;27.37;20.96;97550.16;4986787;28;19925;-85
2023/01/08 12:08:42;;;;;;;;;;;;;;;26.96;23.00;97555.50;4967575;28;19918;-84
2023/01/08 12:11:18;;;;;;;;;;;;;;;27.59;22.45;97546.34;4987897;28;19949;-85
2023/01/08 12:13:59;;;;;;;;;;;;;;;27.06;23.22;97545.84;4989569;28;19937;-84
2023/01/08 12:16:44;;;;;;;;;;;;;;;27.56;22.33;97539.66;4985038;28;19940;-84
2023/01/08 12:19:28;;;;;;;;;;;;;;;27.57;22.55;97537.59;4981453;28;19936;-85
2023/01/08 12:22:09;;;;;;;;;;;;;;;27.60;22.41;97529.00;4984409;28;20301;-84
2023/01/08 12:24:35;;;;;;;;;;;;;;;27.67;22.30;97530.69;4987699;28;19924;-84
2023/01/08 12:27:04;;;;;;;;;;;;;;;27.61;21.78;97529.78;4986485;28;19933;-84
2023/01/08 12:29:30;;;;;;;;;;;;;;;26.85;23.51;97533.44;4989954;28;19936;-84
2023/01/08 12:32:14;;;;;;;;;;;;;;;26.88;23.39;97518.44;4988775;28;20318;-86
2023/01/08 12:34:55;;;;;;;;;;;;;;;27.43;22.67;97522.09;4973159;28;19961;-85
2023/01/08 12:37:21;;;;;;;;;;;;;;;27.39;22.59;97521.47;4990587;28;19929;-86
2023/01/08 12:39:55;;;;;;;;;;;;;;;27.76;22.18;97513.75;4986317;28;19918;-86
2023/01/08 12:42:24;;;;;;;;;;;;;;;27.28;22.49;97509.84;4987910;28;20289;-86
2023/01/08 12:44:53;;;;;;;;;;;;;;;27.20;22.78;97500.94;4992377;28;19930;-84
2023/01/08 12:47:21;;;;;;;;;;;;;;;27.55;22.60;97504.22;4990191;28;20374;-84
2023/01/08 12:49:50;;;;;;;;;;;;;;;26.59;22.77;97512.38;4985311;28;19922;-86
2023/01/08 12:52:24;;;;;;;;;;;;;;;27.29;22.68;97506.56;4977772;28;19929;-86
2023/01/08 12:55:09;;;;;;;;;;;;;;;27.84;21.82;97510.13;4992746;28;20397;-90